sensor_id;sensor_type;location;lat;lon;timestamp;P1;durP1;ratioP1;P2;durP2;ratioP2
846;SDS011;410;48.954;9.474;2022-12-19T00:00:17;38.03;;;20.60;;
846;SDS011;410;48.954;9.474;2022-12-19T00:02:21;38.60;;;21.00;;
846;SDS011;410;48.954;9.474;2022-12-19T00:04:25;40.38;;;21.50;;
846;SDS011;410;48.954;9.474;2022-12-19T00:06:28;40.53;;;20.55;;
846;SDS011;410;48.954;9.474;2022-12-19T00:08:31;36.95;;;20.45;;
846;SDS011;410;48.954;9.474;2022-12-19T00:10:34;41.25;;;22.10;;
846;SDS011;410;48.954;9.474;2022-12-19T00:12:37;35.42;;;20.25;;
846;SDS011;410;48.954;9.474;2022-12-19T00:14:57;39.28;;;20.15;;
846;SDS011;410;48.954;9.474;2022-12-19T00:17:02;38.10;;;20.58;;
846;SDS011;410;48.954;9.474;2022-12-19T00:19:05;39.35;;;20.30;;
846;SDS011;410;48.954;9.474;2022-12-19T00:21:09;40.38;;;20.75;;
846;SDS011;410;48.954;9.474;2022-12-19T00:23:13;37.72;;;20.98;;
846;SDS011;410;48.954;9.474;2022-12-19T00:25:17;38.42;;;20.00;;
846;SDS011;410;48.954;9.474;2022-12-19T00:27:24;42.25;;;20.38;;
846;SDS011;410;48.954;9.474;2022-12-19T00:29:27;36.08;;;18.75;;
846;SDS011;410;48.954;9.474;2022-12-19T00:31:32;44.40;;;22.08;;
846;SDS011;410;48.954;9.474;2022-12-19T00:33:36;38.30;;;20.63;;
846;SDS011;410;48.954;9.474;2022-12-19T00:35:45;40.10;;;20.70;;
846;SDS011;410;48.954;9.474;2022-12-19T00:37:48;46.65;;;24.77;;
846;SDS011;410;48.954;9.474;2022-12-19T00:39:51;65.32;;;35.50;;
846;SDS011;410;48.954;9.474;2022-12-19T00:41:54;43.63;;;23.67;;
846;SDS011;410;48.954;9.474;2022-12-19T00:43:58;47.65;;;27.50;;
846;SDS011;410;48.954;9.474;2022-12-19T00:46:06;45.50;;;23.50;;
846;SDS011;410;48.954;9.474;2022-12-19T00:48:14;40.17;;;21.42;;
846;SDS011;410;48.954;9.474;2022-12-19T00:50:19;39.65;;;21.05;;
846;SDS011;410;48.954;9.474;2022-12-19T00:52:22;37.75;;;20.85;;
846;SDS011;410;48.954;9.474;2022-12-19T00:54:26;38.50;;;22.02;;
846;SDS011;410;48.954;9.474;2022-12-19T00:58:56;39.35;;;20.02;;
846;SDS011;410;48.954;9.474;2022-12-19T01:01:04;44.70;;;21.38;;
846;SDS011;410;48.954;9.474;2022-12-19T01:03:08;37.97;;;20.73;;
846;SDS011;410;48.954;9.474;2022-12-19T01:05:13;46.35;;;23.10;;
846;SDS011;410;48.954;9.474;2022-12-19T01:07:19;41.90;;;22.60;;
846;SDS011;410;48.954;9.474;2022-12-19T01:09:22;44.50;;;24.63;;
846;SDS011;410;48.954;9.474;2022-12-19T01:11:25;42.10;;;23.10;;
846;SDS011;410;48.954;9.474;2022-12-19T01:13:42;41.05;;;23.48;;
846;SDS011;410;48.954;9.474;2022-12-19T01:15:45;42.55;;;22.45;;
846;SDS011;410;48.954;9.474;2022-12-19T01:17:48;43.75;;;23.48;;
846;SDS011;410;48.954;9.474;2022-12-19T01:19:52;47.05;;;24.27;;
846;SDS011;410;48.954;9.474;2022-12-19T01:21:56;40.15;;;22.33;;
846;SDS011;410;48.954;9.474;2022-12-19T01:24:00;43.95;;;23.63;;
846;SDS011;410;48.954;9.474;2022-12-19T01:26:04;40.20;;;21.92;;
846;SDS011;410;48.954;9.474;2022-12-19T01:28:07;37.40;;;20.42;;
846;SDS011;410;48.954;9.474;2022-12-19T01:30:15;38.45;;;21.38;;
846;SDS011;410;48.954;9.474;2022-12-19T01:32:19;41.72;;;22.52;;
846;SDS011;410;48.954;9.474;2022-12-19T01:34:22;40.42;;;22.30;;
846;SDS011;410;48.954;9.474;2022-12-19T01:36:25;41.63;;;21.25;;
846;SDS011;410;48.954;9.474;2022-12-19T01:38:30;40.35;;;22.45;;
846;SDS011;410;48.954;9.474;2022-12-19T01:40:35;40.95;;;21.30;;
846;SDS011;410;48.954;9.474;2022-12-19T01:42:38;39.10;;;20.52;;
846;SDS011;410;48.954;9.474;2022-12-19T01:47:22;38.05;;;20.45;;
846;SDS011;410;48.954;9.474;2022-12-19T01:49:27;39.03;;;20.42;;
846;SDS011;410;48.954;9.474;2022-12-19T01:51:33;36.58;;;19.10;;
846;SDS011;410;48.954;9.474;2022-12-19T01:53:42;44.78;;;20.90;;
846;SDS011;410;48.954;9.474;2022-12-19T01:55:50;42.35;;;21.15;;
846;SDS011;410;48.954;9.474;2022-12-19T01:57:53;38.03;;;19.27;;
846;SDS011;410;48.954;9.474;2022-12-19T01:59:59;35.92;;;19.30;;
846;SDS011;410;48.954;9.474;2022-12-19T02:02:13;33.40;;;17.63;;
846;SDS011;410;48.954;9.474;2022-12-19T02:04:19;38.13;;;19.48;;
846;SDS011;410;48.954;9.474;2022-12-19T02:06:38;36.60;;;19.63;;
846;SDS011;410;48.954;9.474;2022-12-19T02:08:45;35.40;;;18.65;;
846;SDS011;410;48.954;9.474;2022-12-19T02:10:49;39.60;;;19.50;;
846;SDS011;410;48.954;9.474;2022-12-19T02:12:52;35.72;;;19.55;;
846;SDS011;410;48.954;9.474;2022-12-19T02:15:01;34.33;;;19.50;;
846;SDS011;410;48.954;9.474;2022-12-19T02:17:21;37.42;;;19.73;;
846;SDS011;410;48.954;9.474;2022-12-19T02:19:49;38.92;;;20.35;;
846;SDS011;410;48.954;9.474;2022-12-19T02:22:06;40.83;;;20.15;;
846;SDS011;410;48.954;9.474;2022-12-19T02:27:20;40.20;;;19.63;;
846;SDS011;410;48.954;9.474;2022-12-19T02:29:42;33.88;;;17.95;;
846;SDS011;410;48.954;9.474;2022-12-19T02:32:05;35.50;;;18.20;;
846;SDS011;410;48.954;9.474;2022-12-19T02:34:12;34.88;;;18.55;;
846;SDS011;410;48.954;9.474;2022-12-19T02:36:30;34.97;;;18.88;;
846;SDS011;410;48.954;9.474;2022-12-19T02:38:45;36.15;;;18.77;;
846;SDS011;410;48.954;9.474;2022-12-19T02:40:54;34.30;;;18.90;;
846;SDS011;410;48.954;9.474;2022-12-19T02:43:01;39.58;;;19.80;;
846;SDS011;410;48.954;9.474;2022-12-19T02:45:06;41.63;;;20.17;;
846;SDS011;410;48.954;9.474;2022-12-19T02:47:12;35.15;;;18.63;;
846;SDS011;410;48.954;9.474;2022-12-19T02:49:16;38.63;;;18.67;;
846;SDS011;410;48.954;9.474;2022-12-19T02:51:31;38.58;;;19.27;;
846;SDS011;410;48.954;9.474;2022-12-19T02:53:35;36.83;;;19.55;;
846;SDS011;410;48.954;9.474;2022-12-19T02:55:41;33.38;;;17.42;;
846;SDS011;410;48.954;9.474;2022-12-19T02:58:36;35.70;;;18.95;;
846;SDS011;410;48.954;9.474;2022-12-19T03:00:49;38.50;;;20.05;;
846;SDS011;410;48.954;9.474;2022-12-19T03:03:03;36.60;;;19.33;;
846;SDS011;410;48.954;9.474;2022-12-19T03:05:25;36.50;;;20.48;;
846;SDS011;410;48.954;9.474;2022-12-19T03:07:30;36.38;;;18.80;;
846;SDS011;410;48.954;9.474;2022-12-19T03:09:57;35.05;;;19.10;;
846;SDS011;410;48.954;9.474;2022-12-19T03:12:06;38.10;;;19.35;;
846;SDS011;410;48.954;9.474;2022-12-19T03:14:18;40.10;;;20.80;;
846;SDS011;410;48.954;9.474;2022-12-19T03:16:27;32.40;;;17.92;;
846;SDS011;410;48.954;9.474;2022-12-19T03:18:32;34.50;;;19.30;;
846;SDS011;410;48.954;9.474;2022-12-19T03:20:42;37.22;;;19.70;;
846;SDS011;410;48.954;9.474;2022-12-19T03:22:47;34.55;;;18.58;;
846;SDS011;410;48.954;9.474;2022-12-19T03:24:50;36.50;;;18.70;;
846;SDS011;410;48.954;9.474;2022-12-19T03:26:55;36.97;;;19.20;;
846;SDS011;410;48.954;9.474;2022-12-19T03:29:03;35.83;;;19.70;;
846;SDS011;410;48.954;9.474;2022-12-19T03:31:11;34.00;;;19.23;;
846;SDS011;410;48.954;9.474;2022-12-19T03:33:16;32.38;;;17.70;;
846;SDS011;410;48.954;9.474;2022-12-19T03:35:23;36.53;;;18.80;;
846;SDS011;410;48.954;9.474;2022-12-19T03:37:28;33.30;;;18.08;;
846;SDS011;410;48.954;9.474;2022-12-19T03:39:33;32.03;;;17.80;;
846;SDS011;410;48.954;9.474;2022-12-19T03:41:49;35.17;;;18.00;;
846;SDS011;410;48.954;9.474;2022-12-19T03:44:10;36.88;;;20.05;;
846;SDS011;410;48.954;9.474;2022-12-19T03:46:17;35.35;;;18.15;;
846;SDS011;410;48.954;9.474;2022-12-19T03:48:24;40.10;;;19.58;;
846;SDS011;410;48.954;9.474;2022-12-19T03:50:32;37.28;;;17.95;;
846;SDS011;410;48.954;9.474;2022-12-19T03:52:45;35.95;;;17.83;;
846;SDS011;410;48.954;9.474;2022-12-19T03:55:07;39.63;;;19.20;;
846;SDS011;410;48.954;9.474;2022-12-19T03:57:13;37.05;;;18.42;;
846;SDS011;410;48.954;9.474;2022-12-19T03:59:18;34.78;;;16.83;;
846;SDS011;410;48.954;9.474;2022-12-19T04:01:39;33.40;;;18.33;;
846;SDS011;410;48.954;9.474;2022-12-19T04:03:42;33.83;;;19.42;;
846;SDS011;410;48.954;9.474;2022-12-19T04:05:47;35.97;;;18.30;;
846;SDS011;410;48.954;9.474;2022-12-19T04:07:51;34.10;;;18.50;;
846;SDS011;410;48.954;9.474;2022-12-19T04:10:03;33.40;;;18.33;;
846;SDS011;410;48.954;9.474;2022-12-19T04:12:08;32.42;;;17.77;;
846;SDS011;410;48.954;9.474;2022-12-19T04:14:17;35.00;;;18.77;;
846;SDS011;410;48.954;9.474;2022-12-19T04:16:23;32.90;;;17.95;;
846;SDS011;410;48.954;9.474;2022-12-19T04:18:31;35.30;;;18.98;;
846;SDS011;410;48.954;9.474;2022-12-19T04:20:35;33.83;;;17.90;;
846;SDS011;410;48.954;9.474;2022-12-19T04:22:42;31.25;;;17.20;;
846;SDS011;410;48.954;9.474;2022-12-19T04:24:47;32.17;;;17.83;;
846;SDS011;410;48.954;9.474;2022-12-19T04:26:52;33.08;;;17.73;;
846;SDS011;410;48.954;9.474;2022-12-19T04:28:57;35.20;;;18.33;;
846;SDS011;410;48.954;9.474;2022-12-19T04:31:03;35.15;;;19.25;;
846;SDS011;410;48.954;9.474;2022-12-19T04:33:06;40.03;;;19.00;;
846;SDS011;410;48.954;9.474;2022-12-19T04:35:09;32.50;;;17.55;;
846;SDS011;410;48.954;9.474;2022-12-19T04:37:17;39.60;;;19.45;;
846;SDS011;410;48.954;9.474;2022-12-19T04:39:21;37.92;;;18.88;;
846;SDS011;410;48.954;9.474;2022-12-19T04:41:25;35.92;;;19.92;;
846;SDS011;410;48.954;9.474;2022-12-19T04:43:28;33.63;;;18.52;;
846;SDS011;410;48.954;9.474;2022-12-19T04:45:31;33.60;;;18.40;;
846;SDS011;410;48.954;9.474;2022-12-19T04:47:34;34.28;;;18.15;;
846;SDS011;410;48.954;9.474;2022-12-19T04:49:41;34.60;;;18.65;;
846;SDS011;410;48.954;9.474;2022-12-19T04:51:59;32.75;;;17.83;;
846;SDS011;410;48.954;9.474;2022-12-19T04:54:02;35.75;;;18.80;;
846;SDS011;410;48.954;9.474;2022-12-19T04:56:08;33.58;;;18.60;;
846;SDS011;410;48.954;9.474;2022-12-19T04:58:11;34.97;;;18.73;;
846;SDS011;410;48.954;9.474;2022-12-19T05:00:22;37.13;;;18.63;;
846;SDS011;410;48.954;9.474;2022-12-19T05:02:25;35.92;;;18.98;;
846;SDS011;410;48.954;9.474;2022-12-19T05:04:28;35.05;;;19.48;;
846;SDS011;410;48.954;9.474;2022-12-19T05:06:31;34.78;;;17.80;;
846;SDS011;410;48.954;9.474;2022-12-19T05:08:34;34.78;;;18.88;;
846;SDS011;410;48.954;9.474;2022-12-19T05:10:37;37.58;;;18.08;;
846;SDS011;410;48.954;9.474;2022-12-19T05:12:42;35.70;;;18.67;;
846;SDS011;410;48.954;9.474;2022-12-19T05:14:57;33.97;;;18.50;;
846;SDS011;410;48.954;9.474;2022-12-19T05:17:00;35.53;;;18.20;;
846;SDS011;410;48.954;9.474;2022-12-19T05:19:03;37.60;;;19.83;;
846;SDS011;410;48.954;9.474;2022-12-19T05:21:06;35.33;;;18.58;;
846;SDS011;410;48.954;9.474;2022-12-19T05:23:10;32.90;;;18.75;;
846;SDS011;410;48.954;9.474;2022-12-19T05:25:18;40.13;;;19.75;;
846;SDS011;410;48.954;9.474;2022-12-19T05:27:21;37.83;;;19.08;;
846;SDS011;410;48.954;9.474;2022-12-19T05:29:26;36.22;;;19.98;;
846;SDS011;410;48.954;9.474;2022-12-19T05:31:29;36.28;;;19.15;;
846;SDS011;410;48.954;9.474;2022-12-19T05:33:32;32.92;;;18.35;;
846;SDS011;410;48.954;9.474;2022-12-19T05:35:35;36.35;;;19.92;;
846;SDS011;410;48.954;9.474;2022-12-19T05:37:38;37.17;;;18.48;;
846;SDS011;410;48.954;9.474;2022-12-19T05:39:51;34.60;;;17.75;;
846;SDS011;410;48.954;9.474;2022-12-19T05:41:54;37.67;;;20.55;;
846;SDS011;410;48.954;9.474;2022-12-19T05:43:58;33.00;;;18.35;;
846;SDS011;410;48.954;9.474;2022-12-19T05:46:04;35.72;;;19.42;;
846;SDS011;410;48.954;9.474;2022-12-19T05:48:08;38.78;;;20.55;;
846;SDS011;410;48.954;9.474;2022-12-19T05:50:11;36.63;;;19.85;;
846;SDS011;410;48.954;9.474;2022-12-19T05:52:14;36.90;;;19.98;;
846;SDS011;410;48.954;9.474;2022-12-19T05:54:17;39.95;;;21.13;;
846;SDS011;410;48.954;9.474;2022-12-19T05:56:21;37.63;;;19.58;;
846;SDS011;410;48.954;9.474;2022-12-19T05:58:26;38.90;;;19.67;;
846;SDS011;410;48.954;9.474;2022-12-19T06:00:29;34.35;;;18.95;;
846;SDS011;410;48.954;9.474;2022-12-19T06:02:34;38.38;;;20.33;;
846;SDS011;410;48.954;9.474;2022-12-19T06:07:08;34.72;;;19.45;;
846;SDS011;410;48.954;9.474;2022-12-19T06:09:11;35.35;;;18.92;;
846;SDS011;410;48.954;9.474;2022-12-19T06:11:14;34.20;;;18.75;;
846;SDS011;410;48.954;9.474;2022-12-19T06:13:18;37.40;;;21.23;;
846;SDS011;410;48.954;9.474;2022-12-19T06:15:25;34.75;;;19.50;;
846;SDS011;410;48.954;9.474;2022-12-19T06:17:29;39.63;;;20.17;;
846;SDS011;410;48.954;9.474;2022-12-19T06:22:20;35.78;;;19.20;;
846;SDS011;410;48.954;9.474;2022-12-19T06:24:24;32.95;;;19.02;;
846;SDS011;410;48.954;9.474;2022-12-19T06:26:27;40.20;;;21.02;;
846;SDS011;410;48.954;9.474;2022-12-19T06:28:31;37.88;;;19.70;;
846;SDS011;410;48.954;9.474;2022-12-19T06:30:35;32.22;;;17.90;;
846;SDS011;410;48.954;9.474;2022-12-19T06:32:38;36.33;;;20.02;;
846;SDS011;410;48.954;9.474;2022-12-19T06:34:42;36.25;;;20.55;;
846;SDS011;410;48.954;9.474;2022-12-19T06:37:06;36.28;;;19.17;;
846;SDS011;410;48.954;9.474;2022-12-19T06:39:09;36.00;;;19.55;;
846;SDS011;410;48.954;9.474;2022-12-19T06:41:16;37.22;;;19.25;;
846;SDS011;410;48.954;9.474;2022-12-19T06:43:37;37.67;;;20.15;;
846;SDS011;410;48.954;9.474;2022-12-19T06:45:40;34.95;;;19.45;;
846;SDS011;410;48.954;9.474;2022-12-19T06:47:44;34.65;;;19.48;;
846;SDS011;410;48.954;9.474;2022-12-19T06:49:50;39.15;;;20.73;;
846;SDS011;410;48.954;9.474;2022-12-19T06:51:53;33.42;;;19.42;;
846;SDS011;410;48.954;9.474;2022-12-19T06:53:58;32.90;;;18.05;;
846;SDS011;410;48.954;9.474;2022-12-19T06:56:01;37.25;;;19.40;;
846;SDS011;410;48.954;9.474;2022-12-19T06:58:05;38.67;;;20.70;;
846;SDS011;410;48.954;9.474;2022-12-19T07:00:09;35.75;;;19.30;;
846;SDS011;410;48.954;9.474;2022-12-19T07:02:17;37.13;;;20.63;;
846;SDS011;410;48.954;9.474;2022-12-19T07:04:26;44.05;;;22.52;;
846;SDS011;410;48.954;9.474;2022-12-19T07:06:31;34.25;;;19.55;;
846;SDS011;410;48.954;9.474;2022-12-19T07:08:34;39.10;;;19.42;;
846;SDS011;410;48.954;9.474;2022-12-19T07:10:38;38.85;;;21.48;;
846;SDS011;410;48.954;9.474;2022-12-19T07:12:42;37.35;;;20.58;;
846;SDS011;410;48.954;9.474;2022-12-19T07:14:46;37.08;;;21.45;;
846;SDS011;410;48.954;9.474;2022-12-19T07:16:54;35.55;;;19.67;;
846;SDS011;410;48.954;9.474;2022-12-19T07:19:00;37.30;;;20.15;;
846;SDS011;410;48.954;9.474;2022-12-19T07:21:03;35.83;;;19.75;;
846;SDS011;410;48.954;9.474;2022-12-19T07:23:07;36.03;;;19.50;;
846;SDS011;410;48.954;9.474;2022-12-19T07:25:11;36.53;;;20.15;;
846;SDS011;410;48.954;9.474;2022-12-19T07:27:19;35.75;;;20.00;;
846;SDS011;410;48.954;9.474;2022-12-19T07:29:23;36.40;;;19.08;;
846;SDS011;410;48.954;9.474;2022-12-19T07:31:27;38.95;;;20.83;;
846;SDS011;410;48.954;9.474;2022-12-19T07:33:30;37.10;;;19.55;;
846;SDS011;410;48.954;9.474;2022-12-19T07:35:34;38.17;;;20.77;;
846;SDS011;410;48.954;9.474;2022-12-19T07:37:37;37.97;;;20.55;;
846;SDS011;410;48.954;9.474;2022-12-19T07:39:40;38.10;;;19.40;;
846;SDS011;410;48.954;9.474;2022-12-19T07:41:43;37.60;;;20.35;;
846;SDS011;410;48.954;9.474;2022-12-19T07:43:47;34.83;;;20.48;;
846;SDS011;410;48.954;9.474;2022-12-19T07:45:52;37.42;;;20.50;;
846;SDS011;410;48.954;9.474;2022-12-19T07:47:58;40.78;;;21.95;;
846;SDS011;410;48.954;9.474;2022-12-19T07:50:02;38.22;;;21.60;;
846;SDS011;410;48.954;9.474;2022-12-19T07:52:05;40.00;;;22.70;;
846;SDS011;410;48.954;9.474;2022-12-19T07:54:08;44.35;;;24.42;;
846;SDS011;410;48.954;9.474;2022-12-19T07:56:12;45.60;;;25.13;;
846;SDS011;410;48.954;9.474;2022-12-19T07:58:17;35.75;;;19.75;;
846;SDS011;410;48.954;9.474;2022-12-19T08:00:22;37.97;;;21.67;;
846;SDS011;410;48.954;9.474;2022-12-19T08:02:25;39.22;;;21.42;;
846;SDS011;410;48.954;9.474;2022-12-19T08:04:28;37.38;;;22.67;;
846;SDS011;410;48.954;9.474;2022-12-19T08:06:31;39.20;;;21.15;;
846;SDS011;410;48.954;9.474;2022-12-19T08:08:41;37.13;;;20.25;;
846;SDS011;410;48.954;9.474;2022-12-19T08:10:44;38.42;;;20.27;;
846;SDS011;410;48.954;9.474;2022-12-19T08:12:48;37.92;;;19.90;;
846;SDS011;410;48.954;9.474;2022-12-19T08:14:52;39.15;;;21.35;;
846;SDS011;410;48.954;9.474;2022-12-19T08:16:59;35.10;;;19.50;;
846;SDS011;410;48.954;9.474;2022-12-19T08:19:22;38.72;;;21.65;;
846;SDS011;410;48.954;9.474;2022-12-19T08:21:28;38.38;;;20.90;;
846;SDS011;410;48.954;9.474;2022-12-19T08:23:32;38.50;;;21.00;;
846;SDS011;410;48.954;9.474;2022-12-19T08:25:35;38.95;;;21.73;;
846;SDS011;410;48.954;9.474;2022-12-19T08:27:40;36.70;;;20.83;;
846;SDS011;410;48.954;9.474;2022-12-19T08:29:44;35.25;;;18.42;;
846;SDS011;410;48.954;9.474;2022-12-19T08:31:47;37.45;;;20.83;;
846;SDS011;410;48.954;9.474;2022-12-19T08:33:52;39.70;;;20.58;;
846;SDS011;410;48.954;9.474;2022-12-19T08:35:56;36.05;;;19.40;;
846;SDS011;410;48.954;9.474;2022-12-19T08:37:59;35.22;;;20.95;;
846;SDS011;410;48.954;9.474;2022-12-19T08:40:03;38.60;;;20.23;;
846;SDS011;410;48.954;9.474;2022-12-19T08:42:07;32.13;;;18.58;;
846;SDS011;410;48.954;9.474;2022-12-19T08:44:10;34.13;;;19.38;;
846;SDS011;410;48.954;9.474;2022-12-19T08:46:14;41.60;;;21.48;;
846;SDS011;410;48.954;9.474;2022-12-19T08:48:18;33.90;;;19.40;;
846;SDS011;410;48.954;9.474;2022-12-19T08:50:22;38.45;;;20.27;;
846;SDS011;410;48.954;9.474;2022-12-19T08:52:26;38.35;;;22.20;;
846;SDS011;410;48.954;9.474;2022-12-19T08:54:29;36.83;;;20.02;;
846;SDS011;410;48.954;9.474;2022-12-19T08:56:32;39.85;;;22.23;;
846;SDS011;410;48.954;9.474;2022-12-19T08:58:36;35.55;;;20.77;;
846;SDS011;410;48.954;9.474;2022-12-19T09:00:39;36.28;;;19.85;;
846;SDS011;410;48.954;9.474;2022-12-19T09:02:42;36.72;;;19.73;;
846;SDS011;410;48.954;9.474;2022-12-19T09:04:45;35.08;;;19.98;;
846;SDS011;410;48.954;9.474;2022-12-19T09:07:10;41.45;;;23.95;;
846;SDS011;410;48.954;9.474;2022-12-19T09:09:16;42.03;;;23.17;;
846;SDS011;410;48.954;9.474;2022-12-19T09:11:19;36.65;;;20.98;;
846;SDS011;410;48.954;9.474;2022-12-19T09:13:22;37.47;;;22.83;;
846;SDS011;410;48.954;9.474;2022-12-19T09:15:25;37.70;;;22.20;;
846;SDS011;410;48.954;9.474;2022-12-19T09:17:29;44.80;;;26.38;;
846;SDS011;410;48.954;9.474;2022-12-19T09:19:32;38.30;;;21.17;;
846;SDS011;410;48.954;9.474;2022-12-19T09:21:35;37.53;;;21.38;;
846;SDS011;410;48.954;9.474;2022-12-19T09:23:40;42.85;;;22.70;;
846;SDS011;410;48.954;9.474;2022-12-19T09:25:46;38.30;;;21.83;;
846;SDS011;410;48.954;9.474;2022-12-19T09:27:49;37.25;;;22.05;;
846;SDS011;410;48.954;9.474;2022-12-19T09:30:12;34.20;;;20.23;;
846;SDS011;410;48.954;9.474;2022-12-19T09:32:16;34.78;;;20.42;;
846;SDS011;410;48.954;9.474;2022-12-19T09:34:19;35.15;;;21.70;;
846;SDS011;410;48.954;9.474;2022-12-19T09:36:24;38.35;;;22.27;;
846;SDS011;410;48.954;9.474;2022-12-19T09:38:28;42.25;;;25.95;;
846;SDS011;410;48.954;9.474;2022-12-19T09:40:41;42.67;;;24.70;;
846;SDS011;410;48.954;9.474;2022-12-19T09:42:56;40.25;;;24.40;;
846;SDS011;410;48.954;9.474;2022-12-19T09:45:15;36.83;;;22.80;;
846;SDS011;410;48.954;9.474;2022-12-19T09:47:38;41.55;;;24.17;;
846;SDS011;410;48.954;9.474;2022-12-19T09:49:45;40.80;;;23.02;;
846;SDS011;410;48.954;9.474;2022-12-19T09:51:51;36.78;;;23.05;;
846;SDS011;410;48.954;9.474;2022-12-19T09:54:03;33.38;;;21.30;;
846;SDS011;410;48.954;9.474;2022-12-19T09:56:11;37.88;;;22.45;;
846;SDS011;410;48.954;9.474;2022-12-19T09:58:17;37.50;;;23.80;;
846;SDS011;410;48.954;9.474;2022-12-19T10:00:27;34.42;;;21.20;;
846;SDS011;410;48.954;9.474;2022-12-19T10:02:36;40.33;;;24.55;;
846;SDS011;410;48.954;9.474;2022-12-19T10:04:46;39.38;;;21.83;;
846;SDS011;410;48.954;9.474;2022-12-19T10:06:55;36.75;;;21.00;;
846;SDS011;410;48.954;9.474;2022-12-19T10:09:19;36.15;;;20.65;;
846;SDS011;410;48.954;9.474;2022-12-19T10:11:49;36.40;;;20.38;;
846;SDS011;410;48.954;9.474;2022-12-19T10:14:20;32.50;;;19.05;;
846;SDS011;410;48.954;9.474;2022-12-19T10:16:33;41.17;;;23.63;;
846;SDS011;410;48.954;9.474;2022-12-19T10:18:41;32.95;;;20.27;;
846;SDS011;410;48.954;9.474;2022-12-19T10:20:59;34.45;;;21.73;;
846;SDS011;410;48.954;9.474;2022-12-19T10:23:10;36.45;;;21.42;;
846;SDS011;410;48.954;9.474;2022-12-19T10:25:28;38.40;;;21.85;;
846;SDS011;410;48.954;9.474;2022-12-19T10:27:51;36.65;;;21.67;;
846;SDS011;410;48.954;9.474;2022-12-19T10:30:02;37.17;;;21.13;;
846;SDS011;410;48.954;9.474;2022-12-19T10:32:14;50.90;;;29.65;;
846;SDS011;410;48.954;9.474;2022-12-19T10:34:32;32.05;;;19.88;;
846;SDS011;410;48.954;9.474;2022-12-19T10:36:42;36.58;;;21.08;;
846;SDS011;410;48.954;9.474;2022-12-19T10:39:07;41.58;;;24.58;;
846;SDS011;410;48.954;9.474;2022-12-19T10:41:21;42.05;;;22.73;;
846;SDS011;410;48.954;9.474;2022-12-19T10:43:30;32.90;;;20.73;;
846;SDS011;410;48.954;9.474;2022-12-19T10:45:46;34.78;;;21.85;;
846;SDS011;410;48.954;9.474;2022-12-19T10:48:09;34.58;;;19.77;;
846;SDS011;410;48.954;9.474;2022-12-19T10:50:18;49.67;;;25.98;;
846;SDS011;410;48.954;9.474;2022-12-19T10:52:43;35.70;;;20.60;;
846;SDS011;410;48.954;9.474;2022-12-19T10:54:48;35.00;;;21.52;;
846;SDS011;410;48.954;9.474;2022-12-19T10:56:52;32.72;;;21.13;;
846;SDS011;410;48.954;9.474;2022-12-19T10:58:57;31.30;;;19.65;;
846;SDS011;410;48.954;9.474;2022-12-19T11:01:04;36.53;;;21.40;;
846;SDS011;410;48.954;9.474;2022-12-19T11:03:13;31.83;;;19.40;;
846;SDS011;410;48.954;9.474;2022-12-19T11:05:21;30.42;;;19.33;;
846;SDS011;410;48.954;9.474;2022-12-19T11:07:25;31.00;;;18.92;;
846;SDS011;410;48.954;9.474;2022-12-19T11:09:29;33.67;;;20.08;;
846;SDS011;410;48.954;9.474;2022-12-19T11:11:42;34.92;;;20.52;;
846;SDS011;410;48.954;9.474;2022-12-19T11:14:17;33.50;;;19.77;;
846;SDS011;410;48.954;9.474;2022-12-19T11:16:42;31.60;;;20.70;;
846;SDS011;410;48.954;9.474;2022-12-19T11:19:05;33.42;;;20.30;;
846;SDS011;410;48.954;9.474;2022-12-19T11:21:42;37.03;;;21.15;;
846;SDS011;410;48.954;9.474;2022-12-19T11:24:05;31.55;;;20.77;;
846;SDS011;410;48.954;9.474;2022-12-19T11:26:45;36.53;;;22.20;;
846;SDS011;410;48.954;9.474;2022-12-19T11:29:15;34.83;;;21.58;;
846;SDS011;410;48.954;9.474;2022-12-19T11:31:41;34.33;;;20.20;;
846;SDS011;410;48.954;9.474;2022-12-19T11:34:05;33.72;;;20.98;;
846;SDS011;410;48.954;9.474;2022-12-19T11:36:25;40.85;;;25.63;;
846;SDS011;410;48.954;9.474;2022-12-19T11:38:33;36.15;;;21.65;;
846;SDS011;410;48.954;9.474;2022-12-19T11:40:39;32.85;;;21.05;;
846;SDS011;410;48.954;9.474;2022-12-19T11:42:50;34.80;;;22.17;;
846;SDS011;410;48.954;9.474;2022-12-19T11:45:22;35.38;;;23.02;;
846;SDS011;410;48.954;9.474;2022-12-19T11:47:32;34.70;;;21.83;;
846;SDS011;410;48.954;9.474;2022-12-19T11:49:39;34.50;;;20.05;;
846;SDS011;410;48.954;9.474;2022-12-19T11:51:47;37.67;;;22.42;;
846;SDS011;410;48.954;9.474;2022-12-19T11:53:55;31.38;;;20.50;;
846;SDS011;410;48.954;9.474;2022-12-19T11:56:04;28.45;;;19.77;;
846;SDS011;410;48.954;9.474;2022-12-19T11:58:17;34.83;;;20.98;;
846;SDS011;410;48.954;9.474;2022-12-19T12:00:22;36.47;;;22.30;;
846;SDS011;410;48.954;9.474;2022-12-19T12:02:34;31.30;;;20.95;;
846;SDS011;410;48.954;9.474;2022-12-19T12:07:27;35.75;;;22.38;;
846;SDS011;410;48.954;9.474;2022-12-19T12:09:55;33.17;;;21.75;;
846;SDS011;410;48.954;9.474;2022-12-19T12:12:21;37.72;;;22.48;;
846;SDS011;410;48.954;9.474;2022-12-19T12:14:48;37.20;;;22.83;;
846;SDS011;410;48.954;9.474;2022-12-19T12:17:29;38.30;;;23.15;;
846;SDS011;410;48.954;9.474;2022-12-19T12:20:03;42.25;;;25.60;;
846;SDS011;410;48.954;9.474;2022-12-19T12:22:47;36.03;;;24.00;;
846;SDS011;410;48.954;9.474;2022-12-19T12:25:20;31.65;;;21.80;;
846;SDS011;410;48.954;9.474;2022-12-19T12:27:54;30.45;;;20.33;;
846;SDS011;410;48.954;9.474;2022-12-19T12:30:22;34.70;;;20.65;;
846;SDS011;410;48.954;9.474;2022-12-19T12:32:56;32.08;;;20.60;;
846;SDS011;410;48.954;9.474;2022-12-19T12:35:27;32.17;;;20.25;;
846;SDS011;410;48.954;9.474;2022-12-19T12:37:55;32.38;;;19.73;;
846;SDS011;410;48.954;9.474;2022-12-19T12:40:29;34.00;;;21.67;;
846;SDS011;410;48.954;9.474;2022-12-19T12:42:39;31.88;;;20.10;;
846;SDS011;410;48.954;9.474;2022-12-19T12:44:47;32.47;;;21.10;;
846;SDS011;410;48.954;9.474;2022-12-19T12:46:56;30.58;;;22.17;;
846;SDS011;410;48.954;9.474;2022-12-19T12:49:04;29.80;;;20.08;;
846;SDS011;410;48.954;9.474;2022-12-19T12:51:08;35.17;;;22.77;;
846;SDS011;410;48.954;9.474;2022-12-19T12:53:12;36.08;;;24.95;;
846;SDS011;410;48.954;9.474;2022-12-19T12:55:19;45.08;;;33.90;;
846;SDS011;410;48.954;9.474;2022-12-19T12:57:33;34.17;;;24.65;;
846;SDS011;410;48.954;9.474;2022-12-19T12:59:42;42.28;;;25.45;;
846;SDS011;410;48.954;9.474;2022-12-19T13:01:51;39.65;;;25.55;;
846;SDS011;410;48.954;9.474;2022-12-19T13:03:56;34.78;;;24.80;;
846;SDS011;410;48.954;9.474;2022-12-19T13:06:04;40.08;;;26.95;;
846;SDS011;410;48.954;9.474;2022-12-19T13:10:51;35.28;;;23.08;;
846;SDS011;410;48.954;9.474;2022-12-19T13:12:59;37.50;;;24.85;;
846;SDS011;410;48.954;9.474;2022-12-19T13:20:38;40.92;;;26.88;;
846;SDS011;410;48.954;9.474;2022-12-19T13:23:00;46.42;;;31.58;;
846;SDS011;410;48.954;9.474;2022-12-19T13:27:45;35.78;;;23.60;;
846;SDS011;410;48.954;9.474;2022-12-19T13:29:51;36.13;;;23.45;;
846;SDS011;410;48.954;9.474;2022-12-19T13:32:08;33.45;;;23.80;;
846;SDS011;410;48.954;9.474;2022-12-19T13:34:16;40.40;;;28.98;;
846;SDS011;410;48.954;9.474;2022-12-19T13:39:18;35.65;;;23.02;;
846;SDS011;410;48.954;9.474;2022-12-19T13:41:46;34.13;;;25.30;;
846;SDS011;410;48.954;9.474;2022-12-19T13:44:07;38.35;;;23.45;;
846;SDS011;410;48.954;9.474;2022-12-19T13:46:19;37.30;;;24.30;;
846;SDS011;410;48.954;9.474;2022-12-19T13:48:27;37.67;;;23.75;;
846;SDS011;410;48.954;9.474;2022-12-19T13:50:32;32.97;;;22.90;;